Time,TemperatureF,DewpointF,PressureIn,WindDirection,WindDirectionDegrees,WindSpeedMPH,WindSpeedGustMPH,Humidity,HourlyPrecipIn,Conditions,Clouds,dailyrainin,SoftwareType,DateUTC
2013-06-26 00:11:00,68.5,66.1,29.65,West,270,0.0,-999.0,92,-99.99,,,0.00,Acu-Link.com,2013-06-26 04:11:00,
2013-06-26 00:27:00,68.4,66.3,29.64,West,270,2.7,-999.0,93,-99.99,,,0.00,Acu-Link.com,2013-06-26 04:27:00,
2013-06-26 00:42:00,68.5,66.1,29.63,WNW,292,1.1,-999.0,92,-99.99,,,0.00,Acu-Link.com,2013-06-26 04:42:00,
2013-06-26 00:57:00,68.7,66.3,29.63,West,270,1.6,-999.0,92,-99.99,,,0.00,Acu-Link.com,2013-06-26 04:57:00,
2013-06-26 01:12:00,68.7,66.0,29.64,West,270,1.6,-999.0,91,-99.99,,,0.00,Acu-Link.com,2013-06-26 05:12:00,
2013-06-26 01:27:00,68.9,66.2,29.63,West,270,2.7,-999.0,91,-99.99,,,0.00,Acu-Link.com,2013-06-26 05:27:00,
2013-06-26 01:43:00,69.3,66.2,29.64,West,270,3.1,-999.0,90,-99.99,,,0.00,Acu-Link.com,2013-06-26 05:43:00,
2013-06-26 01:58:00,69.4,66.4,29.64,West,270,2.7,-999.0,90,-99.99,,,0.00,Acu-Link.com,2013-06-26 05:58:00,
2013-06-26 02:13:00,69.6,66.2,29.63,West,270,3.1,-999.0,89,-99.99,,,0.00,Acu-Link.com,2013-06-26 06:13:00,
2013-06-26 02:28:00,69.8,66.1,29.63,West,270,4.3,-999.0,88,-99.99,,,0.00,Acu-Link.com,2013-06-26 06:28:00,
2013-06-26 02:44:00,70.2,66.1,29.63,West,270,3.1,-999.0,87,-99.99,,,0.00,Acu-Link.com,2013-06-26 06:44:00,
2013-06-26 02:59:00,70.3,66.3,29.63,West,270,2.7,-999.0,87,-99.99,,,0.00,Acu-Link.com,2013-06-26 06:59:00,
2013-06-26 03:14:00,70.3,65.9,29.62,WNW,292,4.3,-999.0,86,-99.99,,,0.00,Acu-Link.com,2013-06-26 07:14:00,
2013-06-26 03:29:00,70.5,66.1,29.62,West,270,1.1,-999.0,86,-99.99,,,0.00,Acu-Link.com,2013-06-26 07:29:00,
2013-06-26 03:44:00,70.5,66.1,29.62,WNW,292,3.1,-999.0,86,-99.99,,,0.00,Acu-Link.com,2013-06-26 07:44:00,
2013-06-26 04:00:00,70.5,66.1,29.63,West,270,3.1,-999.0,86,-99.99,,,0.00,Acu-Link.com,2013-06-26 08:00:00,
2013-06-26 04:15:00,70.5,66.1,29.62,West,270,1.6,-999.0,86,-99.99,,,0.00,Acu-Link.com,2013-06-26 08:15:00,
2013-06-26 04:30:00,70.5,66.1,29.62,West,270,2.2,-999.0,86,-99.99,,,0.00,Acu-Link.com,2013-06-26 08:30:00,
2013-06-26 04:45:00,70.5,66.1,29.63,West,270,1.6,-999.0,86,-99.99,,,0.00,Acu-Link.com,2013-06-26 08:45:00,
2013-06-26 05:01:00,70.7,66.3,29.63,East,90,2.7,-999.0,86,-99.99,,,0.00,Acu-Link.com,2013-06-26 09:01:00,
2013-06-26 05:16:00,70.7,66.3,29.62,WNW,292,2.7,-999.0,86,-99.99,,,0.00,Acu-Link.com,2013-06-26 09:16:00,
2013-06-26 05:31:00,70.7,66.3,29.64,West,270,5.1,-999.0,86,-99.99,,,0.00,Acu-Link.com,2013-06-26 09:31:00,
2013-06-26 05:46:00,70.7,66.3,29.64,SW,225,2.7,-999.0,86,-99.99,,,0.00,Acu-Link.com,2013-06-26 09:46:00,
2013-06-26 06:01:00,70.5,66.1,29.64,West,270,2.7,-999.0,86,-99.99,,,0.00,Acu-Link.com,2013-06-26 10:01:00,
2013-06-26 06:16:00,70.5,66.1,29.64,WNW,292,2.7,-999.0,86,-99.99,,,0.00,Acu-Link.com,2013-06-26 10:16:00,
2013-06-26 06:31:00,70.5,66.1,29.64,West,270,2.7,-999.0,86,-99.99,,,0.00,Acu-Link.com,2013-06-26 10:31:00,
2013-06-26 06:47:00,70.9,66.1,29.64,West,270,4.3,-999.0,85,-99.99,,,0.00,Acu-Link.com,2013-06-26 10:47:00,
2013-06-26 07:02:00,71.6,66.8,29.64,West,270,4.3,-999.0,85,-99.99,,,0.00,Acu-Link.com,2013-06-26 11:02:00,
2013-06-26 07:17:00,72.0,66.5,29.65,West,270,5.1,-999.0,83,-99.99,,,0.00,Acu-Link.com,2013-06-26 11:17:00,
2013-06-26 07:32:00,72.3,66.9,29.65,West,270,5.8,-999.0,83,-99.99,,,0.00,Acu-Link.com,2013-06-26 11:32:00,
2013-06-26 07:48:00,72.7,67.2,29.65,West,270,3.1,-999.0,83,-99.99,,,0.00,Acu-Link.com,2013-06-26 11:48:00,
2013-06-26 08:03:00,73.2,67.4,29.65,West,270,3.1,-999.0,82,-99.99,,,0.00,Acu-Link.com,2013-06-26 12:03:00,
2013-06-26 08:18:00,74.3,67.4,29.65,West,270,5.8,-999.0,79,-99.99,,,0.00,Acu-Link.com,2013-06-26 12:18:00,
2013-06-26 08:33:00,74.3,67.7,29.65,West,270,3.1,-999.0,80,-99.99,,,0.00,Acu-Link.com,2013-06-26 12:33:00,
2013-06-26 08:48:00,75.2,68.2,29.66,SW,225,0.0,-999.0,79,-99.99,,,0.00,Acu-Link.com,2013-06-26 12:48:00,
2013-06-26 09:04:00,76.1,68.0,29.65,West,270,4.3,-999.0,76,-99.99,,,0.00,Acu-Link.com,2013-06-26 13:04:00,
2013-06-26 09:19:00,75.4,67.7,29.65,West,270,5.1,-999.0,77,-99.99,,,0.00,Acu-Link.com,2013-06-26 13:19:00,
2013-06-26 09:34:00,74.7,67.3,29.65,West,270,5.1,-999.0,78,-99.99,,,0.00,Acu-Link.com,2013-06-26 13:34:00,
2013-06-26 09:49:00,73.9,67.4,29.65,West,270,3.1,-999.0,80,-99.99,,,0.00,Acu-Link.com,2013-06-26 13:49:00,
2013-06-26 10:04:00,73.9,67.4,29.64,West,270,4.3,-999.0,80,-99.99,,,0.00,Acu-Link.com,2013-06-26 14:04:00,
2013-06-26 10:20:00,74.7,67.7,29.64,WNW,292,3.8,-999.0,79,-99.99,,,0.00,Acu-Link.com,2013-06-26 14:20:00,
2013-06-26 10:35:00,75.7,68.8,29.64,WSW,247,2.7,-999.0,79,-99.99,,,0.00,Acu-Link.com,2013-06-26 14:35:00,
2013-06-26 10:50:00,77.5,68.2,29.64,South,180,3.8,-999.0,73,-99.99,,,0.00,Acu-Link.com,2013-06-26 14:50:00,
2013-06-26 11:05:00,78.4,69.4,29.64,SW,225,2.7,-999.0,74,-99.99,,,0.00,Acu-Link.com,2013-06-26 15:05:00,
2013-06-26 11:21:00,79.9,68.4,29.64,West,270,4.7,-999.0,68,-99.99,,,0.00,Acu-Link.com,2013-06-26 15:21:00,
2013-06-26 11:36:00,79.9,68.8,29.65,West,270,5.1,-999.0,69,-99.99,,,0.00,Acu-Link.com,2013-06-26 15:36:00,
2013-06-26 11:51:00,80.2,69.1,29.65,West,270,4.7,-999.0,69,-99.99,,,0.00,Acu-Link.com,2013-06-26 15:51:00,
2013-06-26 12:06:00,81.9,69.4,29.65,West,270,4.7,-999.0,66,-99.99,,,0.00,Acu-Link.com,2013-06-26 16:06:00,
2013-06-26 12:21:00,81.5,70.3,29.64,NNW,337,2.2,-999.0,69,-99.99,,,0.00,Acu-Link.com,2013-06-26 16:21:00,
2013-06-26 12:37:00,82.9,69.9,29.64,WSW,247,2.2,-999.0,65,-99.99,,,0.00,Acu-Link.com,2013-06-26 16:37:00,
2013-06-26 12:52:00,83.8,69.9,29.64,West,270,4.3,-999.0,63,-99.99,,,0.00,Acu-Link.com,2013-06-26 16:52:00,
2013-06-26 13:07:00,83.7,70.2,29.63,West,270,2.2,-999.0,64,-99.99,,,0.00,Acu-Link.com,2013-06-26 17:07:00,
2013-06-26 13:22:00,82.4,69.9,29.63,West,270,8.3,-999.0,66,-99.99,,,0.00,Acu-Link.com,2013-06-26 17:22:00,
2013-06-26 13:37:00,81.0,70.7,29.64,North,0,2.2,-999.0,71,-99.99,,,0.00,Acu-Link.com,2013-06-26 17:37:00,
2013-06-26 13:53:00,81.0,68.9,29.64,SW,225,6.3,-999.0,67,-99.99,,,0.00,Acu-Link.com,2013-06-26 17:53:00,
2013-06-26 14:08:00,81.5,70.3,29.64,NW,315,2.7,-999.0,69,-99.99,,,0.00,Acu-Link.com,2013-06-26 18:08:00,
2013-06-26 14:23:00,81.3,68.9,29.64,West,270,7.8,-999.0,66,-99.99,,,0.00,Acu-Link.com,2013-06-26 18:23:00,
2013-06-26 14:38:00,80.6,69.0,29.65,SW,225,4.3,-999.0,68,-99.99,,,0.00,Acu-Link.com,2013-06-26 18:38:00,
2013-06-26 14:54:00,79.0,67.9,29.65,West,270,2.7,-999.0,69,-99.99,,,0.00,Acu-Link.com,2013-06-26 18:54:00,
2013-06-26 15:09:00,80.1,67.2,29.64,West,270,5.1,-999.0,65,-99.99,,,0.00,Acu-Link.com,2013-06-26 19:09:00,
2013-06-26 15:24:00,78.1,66.6,29.64,West,270,9.8,-999.0,68,-99.99,,,0.00,Acu-Link.com,2013-06-26 19:24:00,
2013-06-26 15:39:00,79.5,68.0,29.63,WNW,292,5.1,-999.0,68,-99.99,,,0.00,Acu-Link.com,2013-06-26 19:39:00,
2013-06-26 15:54:00,78.4,67.8,29.64,West,270,2.2,-999.0,70,-99.99,,,0.00,Acu-Link.com,2013-06-26 19:54:00,
2013-06-26 16:10:00,79.3,67.0,29.63,West,270,5.8,-999.0,66,-99.99,,,0.00,Acu-Link.com,2013-06-26 20:10:00,
2013-06-26 16:25:00,79.2,67.2,29.64,West,270,1.1,-999.0,67,-99.99,,,0.00,Acu-Link.com,2013-06-26 20:25:00,
2013-06-26 16:40:00,78.4,65.2,29.63,NW,315,1.6,-999.0,64,-99.99,,,0.00,Acu-Link.com,2013-06-26 20:40:00,
2013-06-26 16:55:00,80.4,66.2,29.63,West,270,2.7,-999.0,62,-99.99,,,0.00,Acu-Link.com,2013-06-26 20:55:00,
2013-06-26 17:10:00,82.4,67.6,29.63,West,270,5.1,-999.0,61,-99.99,,,0.00,Acu-Link.com,2013-06-26 21:10:00,
2013-06-26 17:26:00,84.4,68.9,29.63,West,270,0.0,-999.0,60,-99.99,,,0.00,Acu-Link.com,2013-06-26 21:26:00,
2013-06-26 17:41:00,84.4,68.9,29.62,West,270,5.1,-999.0,60,-99.99,,,0.00,Acu-Link.com,2013-06-26 21:41:00,
2013-06-26 17:56:00,82.9,68.1,29.62,West,270,5.8,-999.0,61,-99.99,,,0.00,Acu-Link.com,2013-06-26 21:56:00,
2013-06-26 18:11:00,83.3,68.4,29.62,West,270,3.8,-999.0,61,-99.99,,,0.00,Acu-Link.com,2013-06-26 22:11:00,
2013-06-26 18:27:00,83.8,69.4,29.62,West,270,1.1,-999.0,62,-99.99,,,0.00,Acu-Link.com,2013-06-26 22:27:00,
2013-06-26 18:42:00,84.0,69.1,29.61,West,270,1.6,-999.0,61,-99.99,,,0.00,Acu-Link.com,2013-06-26 22:42:00,
2013-06-26 18:57:00,83.3,68.4,29.61,West,270,3.1,-999.0,61,-99.99,,,0.00,Acu-Link.com,2013-06-26 22:57:00,
2013-06-26 19:12:00,82.9,68.1,29.62,WNW,292,1.6,-999.0,61,-99.99,,,0.00,Acu-Link.com,2013-06-26 23:12:00,
2013-06-26 19:27:00,82.6,69.1,29.61,South,180,0.0,-999.0,64,-99.99,,,0.00,Acu-Link.com,2013-06-26 23:27:00,
2013-06-26 19:43:00,82.4,69.0,29.61,West,270,0.0,-999.0,64,-99.99,,,0.00,Acu-Link.com,2013-06-26 23:43:00,
2013-06-26 19:58:00,80.8,68.8,29.62,WNW,292,0.0,-999.0,67,-99.99,,,0.00,Acu-Link.com,2013-06-26 23:58:00,
2013-06-26 20:13:00,79.9,68.4,29.62,West,270,1.6,-999.0,68,-99.99,,,0.00,Acu-Link.com,2013-06-27 00:13:00,
2013-06-26 20:28:00,77.9,68.5,29.61,West,270,0.0,-999.0,73,-99.99,,,0.00,Acu-Link.com,2013-06-27 00:28:00,
2013-06-26 20:43:00,76.1,67.6,29.61,SSW,202,0.0,-999.0,75,-99.99,,,0.00,Acu-Link.com,2013-06-27 00:43:00,
2013-06-26 20:59:00,74.7,67.3,29.61,SW,225,0.0,-999.0,78,-99.99,,,0.00,Acu-Link.com,2013-06-27 00:59:00,
2013-06-26 21:14:00,73.8,67.2,29.62,West,270,0.0,-999.0,80,-99.99,,,0.00,Acu-Link.com,2013-06-27 01:14:00,
2013-06-26 21:29:00,72.5,66.7,29.63,SSE,157,0.0,-999.0,82,-99.99,,,0.00,Acu-Link.com,2013-06-27 01:29:00,
2013-06-26 21:44:00,71.6,66.2,29.63,South,180,1.1,-999.0,83,-99.99,,,0.00,Acu-Link.com,2013-06-27 01:44:00,
2013-06-26 22:00:00,70.9,65.5,29.64,SSE,157,0.0,-999.0,83,-99.99,,,0.00,Acu-Link.com,2013-06-27 02:00:00,
2013-06-26 22:15:00,70.5,65.1,29.64,SSW,202,0.0,-999.0,83,-99.99,,,0.00,Acu-Link.com,2013-06-27 02:15:00,
2013-06-26 22:30:00,69.8,64.4,29.65,South,180,0.0,-999.0,83,-99.99,,,0.00,Acu-Link.com,2013-06-27 02:30:00,
2013-06-26 22:45:00,69.3,64.6,29.64,SE,135,0.0,-999.0,85,-99.99,,,0.00,Acu-Link.com,2013-06-27 02:45:00,
2013-06-26 23:00:00,68.7,64.0,29.64,South,180,0.0,-999.0,85,-99.99,,,0.00,Acu-Link.com,2013-06-27 03:00:00,
2013-06-26 23:16:00,68.2,63.8,29.63,South,180,0.0,-999.0,86,-99.99,,,0.00,Acu-Link.com,2013-06-27 03:16:00,
2013-06-26 23:31:00,67.6,64.0,29.63,South,180,0.0,-999.0,88,-99.99,,,0.00,Acu-Link.com,2013-06-27 03:31:00,
2013-06-26 23:46:00,67.1,63.4,29.64,ESE,112,0.0,-999.0,88,-99.99,,,0.00,Acu-Link.com,2013-06-27 03:46:00,